Walum, North Dakota
Current Conditions -  °F | °C
As of 4:15 PM on Sunday 23 Nov 2014 (Local Time) from KBAC Reporting Station
Light Snow Light Snow  
Wind Chill: 10°   Ceiling: 1100
Heat Index: 25°   Visibility: 10mi
Dew Point: 23°   Wind: 23mph
Humidity: 93%   Direction: 300°WNW
Pressure: 29.49"   Gusts: 32mph
Location:  47.2843°N, 98.1073°W
Report Text: KBAC 232215Z AUTO 30020G28KT 10SM -SN OVC011 M04/M05 A2949 RMK AO2
Loading
Personal Weather Stations






























Interactive Weather Map New forecast layout! Learn more

10-Day Weather Forecast

Advertisements
Track Severe Weather on mobile